createdAt,value
2022-09-12T00:00:49.783Z,5.78
2022-09-12T00:03:20.270Z,7.22
2022-09-12T00:05:48.296Z,4.95
2022-09-12T00:08:15.740Z,5.22
2022-09-12T00:10:45.746Z,5.20
2022-09-12T00:13:13.141Z,5.55
2022-09-12T00:15:43.861Z,5.30
2022-09-12T00:18:15.341Z,5.20
2022-09-12T00:20:43.208Z,6.90
2022-09-12T00:23:12.009Z,4.38
2022-09-12T00:25:43.767Z,5.07
2022-09-12T00:28:11.827Z,4.07
2022-09-12T00:30:44.630Z,3.83
2022-09-12T00:33:12.633Z,5.20
2022-09-12T00:35:44.435Z,4.22
2022-09-12T00:38:12.084Z,5.05
2022-09-12T00:40:40.433Z,5.18
2022-09-12T00:43:13.707Z,7.90
2022-09-12T00:45:42.670Z,4.05
2022-09-12T00:48:32.748Z,4.45
2022-09-12T00:51:01.002Z,5.00
2022-09-12T00:53:28.743Z,6.50
2022-09-12T00:55:56.971Z,4.80
2022-09-12T00:58:28.937Z,4.05
2022-09-12T01:00:57.456Z,3.90
2022-09-12T01:03:26.803Z,5.50
2022-09-12T01:06:03.987Z,5.85
2022-09-12T01:08:34.541Z,3.88
2022-09-12T01:11:02.273Z,4.53
2022-09-12T01:13:30.054Z,5.28
2022-09-12T01:15:57.578Z,5.97
2022-09-12T01:18:30.510Z,4.07
2022-09-12T01:21:13.768Z,4.03
2022-09-12T01:24:23.929Z,4.15
2022-09-12T01:27:23.645Z,5.63
2022-09-12T01:32:46.111Z,6.03
2022-09-12T01:35:23.060Z,5.97
2022-09-12T01:38:00.782Z,6.35
2022-09-12T01:40:36.025Z,7.93
2022-09-12T01:43:17.385Z,8.32
2022-09-12T01:45:48.256Z,7.80
2022-09-12T01:48:20.516Z,6.68
2022-09-12T01:50:52.633Z,6.28
2022-09-12T01:53:23.912Z,6.18
2022-09-12T01:55:55.834Z,4.78
2022-09-12T01:58:26.920Z,6.50
2022-09-12T02:01:02.475Z,3.85
2022-09-12T02:03:35.160Z,10.18
2022-09-12T02:06:08.358Z,7.25
2022-09-12T02:08:43.213Z,7.07
2022-09-12T02:11:12.371Z,8.23
2022-09-12T02:13:43.292Z,8.65
2022-09-12T02:16:16.235Z,9.23
2022-09-12T02:18:47.843Z,9.80
2022-09-12T02:21:18.564Z,8.02
2022-09-12T02:23:54.431Z,9.45
2022-09-12T02:26:27.745Z,14.00
2022-09-12T02:28:57.871Z,10.57
2022-09-12T02:31:29.196Z,11.43
2022-09-12T02:34:09.414Z,13.10
2022-09-12T02:36:50.211Z,10.30
2022-09-12T02:39:21.054Z,12.80
2022-09-12T02:41:51.346Z,13.13
2022-09-12T02:44:19.210Z,15.23
2022-09-12T02:46:50.995Z,16.52
2022-09-12T02:49:20.024Z,16.75
2022-09-12T02:51:49.052Z,14.93
2022-09-12T02:54:18.205Z,13.93
2022-09-12T02:56:46.824Z,14.45
2022-09-12T02:59:18.124Z,13.45
2022-09-12T03:02:07.910Z,12.85
2022-09-12T03:07:22.116Z,9.68
2022-09-12T03:10:02.688Z,10.55
2022-09-12T03:12:46.817Z,13.25
2022-09-12T03:15:27.344Z,13.80
2022-09-12T03:18:12.615Z,13.82
2022-09-12T03:20:50.891Z,8.38
2022-09-12T03:23:27.093Z,9.53
2022-09-12T03:25:59.480Z,7.55
2022-09-12T03:28:27.346Z,11.65
2022-09-12T03:30:56.648Z,9.95
2022-09-12T03:33:26.058Z,8.07
2022-09-12T03:35:55.818Z,16.85
2022-09-12T03:40:54.546Z,9.38
2022-09-12T03:43:22.540Z,9.90
2022-09-12T03:45:52.388Z,12.43
2022-09-12T03:48:20.748Z,13.68
2022-09-12T03:50:48.151Z,13.75
2022-09-12T03:53:17.509Z,10.85
2022-09-12T03:55:45.732Z,13.23
2022-09-12T03:58:13.423Z,13.57
2022-09-12T04:00:41.132Z,8.48
2022-09-12T04:03:09.369Z,11.63
2022-09-12T04:05:37.062Z,8.23
2022-09-12T04:08:04.323Z,7.35
2022-09-12T04:10:33.148Z,6.38
2022-09-12T04:13:01.556Z,5.53
2022-09-12T04:15:29.867Z,9.90
2022-09-12T04:17:57.220Z,7.03
2022-09-12T04:20:25.266Z,7.90
2022-09-12T04:22:52.591Z,5.60
2022-09-12T04:25:19.837Z,6.25
2022-09-12T04:27:48.451Z,4.97
2022-09-12T04:30:16.194Z,8.35
2022-09-12T04:32:43.536Z,7.35
2022-09-12T04:35:13.616Z,8.63
2022-09-12T04:37:41.247Z,9.20
2022-09-12T04:40:10.346Z,7.13
2022-09-12T04:42:37.929Z,5.10
2022-09-12T04:45:09.309Z,7.75
2022-09-12T04:47:37.219Z,6.80
2022-09-12T04:50:06.709Z,5.75
2022-09-12T04:52:34.471Z,7.78
2022-09-12T04:55:02.051Z,5.68
2022-09-12T04:57:30.521Z,8.50
2022-09-12T05:00:03.857Z,7.05
2022-09-12T05:02:35.688Z,9.18
2022-09-12T05:05:03.124Z,7.15
2022-09-12T05:07:32.626Z,9.35
2022-09-12T05:10:00.673Z,9.70
2022-09-12T05:12:28.171Z,10.10
2022-09-12T05:14:55.938Z,12.15
2022-09-12T05:17:23.343Z,12.70
2022-09-12T05:19:54.229Z,12.50
2022-09-12T05:22:21.789Z,12.07
2022-09-12T05:24:50.695Z,10.45
2022-09-12T05:27:18.361Z,14.15
2022-09-12T05:29:45.694Z,12.02
2022-09-12T05:32:13.010Z,8.35
2022-09-12T05:34:40.665Z,8.27
2022-09-12T05:37:10.685Z,7.78
2022-09-12T05:39:38.172Z,5.32
2022-09-12T05:42:08.059Z,7.53
2022-09-12T05:44:35.415Z,6.25
2022-09-12T05:47:03.284Z,3.55
2022-09-12T05:49:31.093Z,4.75
2022-09-12T05:51:58.559Z,6.93
2022-09-12T05:54:31.342Z,6.13
2022-09-12T05:56:59.201Z,6.53
2022-09-12T05:59:28.636Z,4.63
2022-09-12T06:01:57.371Z,7.20
2022-09-12T06:04:25.641Z,7.67
2022-09-12T06:06:54.824Z,5.78
2022-09-12T06:09:22.949Z,4.70
2022-09-12T06:11:52.209Z,8.07
2022-09-12T06:14:20.000Z,4.18
2022-09-12T06:16:48.824Z,3.85
2022-09-12T06:19:18.800Z,3.43
2022-09-12T06:21:49.656Z,2.78
2022-09-12T06:24:18.899Z,3.05
2022-09-12T06:26:47.563Z,1.48
2022-09-12T06:29:16.926Z,2.55
2022-09-12T06:31:46.038Z,4.45
2022-09-12T06:34:16.166Z,1.90
2022-09-12T06:36:46.380Z,4.72
2022-09-12T06:39:16.357Z,3.13
2022-09-12T06:41:44.512Z,1.52
2022-09-12T06:44:15.692Z,2.20
2022-09-12T06:46:44.714Z,1.90
2022-09-12T06:49:12.583Z,1.23
2022-09-12T06:51:44.588Z,4.32
2022-09-12T06:54:14.317Z,1.95
2022-09-12T06:59:09.002Z,1.80
2022-09-12T07:01:36.605Z,2.55
2022-09-12T07:04:06.013Z,2.55
2022-09-12T07:06:37.825Z,1.80
2022-09-12T07:09:07.065Z,2.60
2022-09-12T07:11:36.753Z,1.58
2022-09-12T07:14:06.920Z,1.30
2022-09-12T07:16:35.962Z,1.67
2022-09-12T07:19:06.851Z,1.60
2022-09-12T07:21:40.316Z,2.65
2022-09-12T07:24:10.523Z,2.58
2022-09-12T07:26:38.771Z,1.13
2022-09-12T07:29:32.777Z,3.08
2022-09-12T07:31:53.811Z,1.48
2022-09-12T07:34:22.940Z,1.13
2022-09-12T07:36:51.388Z,2.47
2022-09-12T07:39:18.650Z,1.27
2022-09-12T07:41:45.959Z,2.28
2022-09-12T07:44:13.172Z,1.70
2022-09-12T07:46:40.613Z,1.25
2022-09-12T07:49:08.501Z,3.38
2022-09-12T07:51:38.020Z,2.03
2022-09-12T07:54:08.521Z,1.30
2022-09-12T07:56:38.904Z,2.90
2022-09-12T07:59:06.866Z,1.58
2022-09-12T08:01:34.190Z,2.70
2022-09-12T08:04:01.855Z,2.08
2022-09-12T08:06:32.196Z,2.85
2022-09-12T08:09:01.996Z,6.22
2022-09-12T08:13:57.781Z,2.47
2022-09-12T08:16:27.195Z,5.53
2022-09-12T08:18:54.712Z,1.70
2022-09-12T08:21:24.260Z,1.73
2022-09-12T08:23:53.719Z,4.57
2022-09-12T08:26:23.534Z,3.13
2022-09-12T08:28:51.318Z,3.88
2022-09-12T08:31:20.632Z,5.22
2022-09-12T08:33:48.097Z,2.15
2022-09-12T08:36:16.545Z,1.50
2022-09-12T08:38:46.233Z,1.63
2022-09-12T08:44:09.837Z,3.88
2022-09-12T08:46:42.396Z,2.88
2022-09-12T08:49:12.204Z,1.95
2022-09-12T08:51:40.579Z,2.10
2022-09-12T08:54:19.016Z,3.03
2022-09-12T08:56:48.422Z,4.18
2022-09-12T08:59:17.432Z,2.05
2022-09-12T09:01:45.751Z,4.68
2022-09-12T09:04:31.975Z,2.90
2022-09-12T09:07:27.300Z,2.97
2022-09-12T09:10:09.274Z,3.53
2022-09-12T09:12:47.501Z,3.13
2022-09-12T09:15:34.201Z,7.47
2022-09-12T09:18:06.588Z,4.10
2022-09-12T09:20:40.234Z,4.13
2022-09-12T09:23:12.868Z,3.58
2022-09-12T09:25:50.460Z,4.07
2022-09-12T09:28:22.807Z,6.18
2022-09-12T09:30:52.919Z,4.68
2022-09-12T09:33:25.072Z,4.47
2022-09-12T09:36:02.475Z,3.53
2022-09-12T09:38:39.638Z,8.10
2022-09-12T09:41:34.165Z,3.28
2022-09-12T09:44:02.514Z,1.88
2022-09-12T09:46:32.890Z,1.88
2022-09-12T09:49:03.388Z,2.17
2022-09-12T09:51:35.744Z,3.13
2022-09-12T09:54:11.210Z,2.10
2022-09-12T09:56:42.897Z,3.75
2022-09-12T09:59:11.986Z,2.53
2022-09-12T10:01:47.434Z,3.53
2022-09-12T10:04:20.346Z,8.18
2022-09-12T10:06:47.691Z,5.25
2022-09-12T10:09:21.370Z,2.70
2022-09-12T10:11:49.808Z,2.75
2022-09-12T10:14:35.639Z,3.72
2022-09-12T10:17:23.658Z,2.92
2022-09-12T10:20:10.401Z,2.10
2022-09-12T10:22:39.275Z,3.70
2022-09-12T10:25:13.501Z,3.92
2022-09-12T10:27:42.346Z,5.43
2022-09-12T10:30:18.611Z,3.67
2022-09-12T10:32:54.230Z,2.70
2022-09-12T10:35:22.815Z,3.03
2022-09-12T10:37:54.274Z,4.68
2022-09-12T10:40:24.158Z,5.10
2022-09-12T10:42:53.614Z,1.98
2022-09-12T10:45:24.884Z,3.45
2022-09-12T10:47:54.726Z,2.35
2022-09-12T10:50:31.091Z,4.10
2022-09-12T10:53:18.547Z,6.40
2022-09-12T10:56:08.072Z,2.00
2022-09-12T11:01:32.069Z,12.38
2022-09-12T11:04:32.991Z,3.35
2022-09-12T11:07:29.690Z,1.90
2022-09-12T11:10:03.149Z,3.00
2022-09-12T11:12:40.217Z,2.35
2022-09-12T11:15:38.033Z,2.10
2022-09-12T11:18:14.667Z,3.95
2022-09-12T11:21:14.172Z,4.80
2022-09-12T11:26:40.934Z,3.70
2022-09-12T11:29:21.398Z,4.68
2022-09-12T11:32:16.084Z,11.30
2022-09-12T11:34:55.950Z,16.42
2022-09-12T11:37:46.267Z,7.88
2022-09-12T11:40:29.158Z,7.88
2022-09-12T11:43:03.178Z,8.98
2022-09-12T11:45:37.637Z,6.65
2022-09-12T11:48:11.947Z,9.55
2022-09-12T11:50:39.159Z,2.72
2022-09-12T11:53:16.780Z,13.23
2022-09-12T11:55:56.073Z,2.08
2022-09-12T11:58:26.778Z,2.25
2022-09-12T12:00:59.299Z,2.95
2022-09-12T12:03:33.139Z,1.90
2022-09-12T12:06:05.942Z,2.55
2022-09-12T12:08:40.006Z,1.63
2022-09-12T12:11:08.800Z,2.22
2022-09-12T12:13:39.457Z,3.63
2022-09-12T12:16:15.045Z,2.10
2022-09-12T12:18:44.157Z,1.88
2022-09-12T12:21:37.845Z,1.38
2022-09-12T12:24:16.954Z,2.38
2022-09-12T12:27:00.372Z,2.47
2022-09-12T12:29:43.404Z,4.90
2022-09-12T12:32:25.493Z,1.92
2022-09-12T12:35:32.345Z,3.00
2022-09-12T12:38:00.178Z,2.38
2022-09-12T12:40:30.683Z,4.18
2022-09-12T12:43:06.244Z,1.90
2022-09-12T12:46:02.341Z,2.47
2022-09-12T12:48:46.545Z,2.38
2022-09-12T12:51:34.836Z,2.53
2022-09-12T12:54:07.737Z,1.67
2022-09-12T12:56:42.832Z,1.75
2022-09-12T12:59:23.171Z,2.85
2022-09-12T13:01:55.398Z,2.20
2022-09-12T13:04:25.771Z,2.03
2022-09-12T13:07:07.161Z,1.75
2022-09-12T13:09:39.748Z,2.50
2022-09-12T13:12:11.894Z,2.15
2022-09-12T13:14:52.772Z,4.20
2022-09-12T13:17:27.918Z,3.22
2022-09-12T13:20:26.624Z,5.05
2022-09-12T13:22:53.514Z,3.30
2022-09-12T13:25:29.539Z,7.85
2022-09-12T13:28:04.293Z,3.63
2022-09-12T13:30:34.549Z,4.82
2022-09-12T13:33:11.523Z,2.25
2022-09-12T13:35:49.437Z,1.85
2022-09-12T13:38:26.394Z,4.53
2022-09-12T13:41:13.971Z,2.28
2022-09-12T13:43:46.976Z,4.32
2022-09-12T13:46:17.759Z,4.03
2022-09-12T13:48:45.690Z,2.65
2022-09-12T13:51:23.877Z,3.03
2022-09-12T13:53:54.061Z,6.35
2022-09-12T13:56:22.010Z,3.22
2022-09-12T13:58:56.491Z,5.80
2022-09-12T14:01:24.840Z,3.33
2022-09-12T14:04:12.035Z,3.72
2022-09-12T14:06:46.355Z,3.28
2022-09-12T14:09:19.801Z,8.10
2022-09-12T14:11:51.518Z,3.30
2022-09-12T14:16:55.333Z,2.83
2022-09-12T14:19:26.183Z,4.38
2022-09-12T14:21:54.207Z,3.05
2022-09-12T14:24:24.081Z,3.80
2022-09-12T14:26:54.303Z,5.55
2022-09-12T14:29:25.361Z,5.78
2022-09-12T14:32:03.759Z,5.40
2022-09-12T14:34:32.012Z,3.45
2022-09-12T14:36:59.693Z,3.60
2022-09-12T14:39:32.159Z,3.03
2022-09-12T14:42:06.786Z,3.97
2022-09-12T14:44:36.481Z,4.32
2022-09-12T14:47:14.057Z,6.15
2022-09-12T14:49:42.019Z,5.13
2022-09-12T14:52:24.750Z,4.63
2022-09-12T14:55:00.705Z,5.32
2022-09-12T14:57:42.145Z,2.92
2022-09-12T15:00:22.976Z,4.38
2022-09-12T15:02:52.546Z,3.90
2022-09-12T15:05:24.002Z,5.18
2022-09-12T15:08:03.413Z,4.43
2022-09-12T15:10:34.191Z,4.22
2022-09-12T15:13:14.362Z,3.63
2022-09-12T15:15:46.492Z,3.92
2022-09-12T15:18:14.985Z,5.90
2022-09-12T15:20:44.839Z,4.50
2022-09-12T15:23:18.153Z,4.40
2022-09-12T15:25:46.350Z,7.30
2022-09-12T15:28:19.649Z,4.60
2022-09-12T15:30:52.273Z,8.95
2022-09-12T15:33:22.974Z,4.13
2022-09-12T15:35:51.204Z,3.47
2022-09-12T15:38:23.126Z,4.18
2022-09-12T15:40:54.845Z,4.72
2022-09-12T15:43:23.537Z,4.00
2022-09-12T15:45:53.482Z,6.13
2022-09-12T15:48:22.330Z,5.60
2022-09-12T15:50:49.982Z,4.77
2022-09-12T15:53:18.361Z,7.22
2022-09-12T15:55:46.092Z,6.10
2022-09-12T15:58:14.231Z,6.70
2022-09-12T16:00:41.789Z,8.05
2022-09-12T16:03:20.429Z,4.03
2022-09-12T16:05:47.645Z,4.45
2022-09-12T16:08:15.007Z,3.83
2022-09-12T16:10:44.335Z,6.05
2022-09-12T16:13:11.668Z,5.30
2022-09-12T16:15:38.948Z,4.57
2022-09-12T16:18:06.629Z,12.25
2022-09-12T16:20:35.510Z,5.50
2022-09-12T16:23:03.362Z,5.53
2022-09-12T16:25:31.213Z,5.47
2022-09-12T16:27:58.662Z,4.28
2022-09-12T16:30:27.819Z,5.75
2022-09-12T16:32:55.161Z,5.82
2022-09-12T16:35:22.623Z,3.78
2022-09-12T16:37:52.386Z,9.80
2022-09-12T16:40:19.746Z,7.50
2022-09-12T16:42:47.001Z,5.30
2022-09-12T16:45:14.678Z,5.82
2022-09-12T16:47:43.268Z,6.97
2022-09-12T16:52:38.714Z,9.57
2022-09-12T16:55:08.406Z,15.52
2022-09-12T16:57:38.110Z,20.75
2022-09-12T17:00:06.874Z,23.52
2022-09-12T17:02:34.188Z,19.63
2022-09-12T17:05:01.622Z,13.63
2022-09-12T17:07:30.991Z,13.25
2022-09-12T17:09:58.598Z,12.35
2022-09-12T17:12:29.052Z,10.20
2022-09-12T17:14:56.346Z,15.43
2022-09-12T17:17:23.825Z,20.85
2022-09-12T17:19:55.051Z,20.02
2022-09-12T17:22:23.793Z,15.10
2022-09-12T17:24:51.833Z,12.88
2022-09-12T17:27:25.807Z,18.08
2022-09-12T17:29:57.416Z,13.40
2022-09-12T17:32:29.649Z,14.23
2022-09-12T17:34:57.348Z,13.07
2022-09-12T17:37:25.310Z,20.88
2022-09-12T17:39:54.327Z,14.48
2022-09-12T17:42:22.945Z,13.30
2022-09-12T17:44:51.531Z,19.40
2022-09-12T17:47:20.231Z,11.40
2022-09-12T17:49:48.128Z,12.40
2022-09-12T17:52:16.611Z,12.88
2022-09-12T17:54:43.971Z,17.75
2022-09-12T17:57:11.932Z,11.93
2022-09-12T17:59:41.577Z,15.48
2022-09-12T18:02:16.946Z,16.13
2022-09-12T18:04:47.532Z,15.30
2022-09-12T18:07:20.948Z,12.35
2022-09-12T18:09:50.923Z,11.25
2022-09-12T18:12:24.410Z,12.25
2022-09-12T18:15:11.506Z,12.18
2022-09-12T18:17:40.361Z,10.90
2022-09-12T18:20:09.845Z,9.05
2022-09-12T18:22:37.964Z,12.05
2022-09-12T18:25:06.859Z,10.13
2022-09-12T18:27:35.140Z,12.95
2022-09-12T18:30:20.672Z,9.23
2022-09-12T18:32:49.651Z,16.38
2022-09-12T18:35:18.810Z,13.23
2022-09-12T18:37:46.257Z,10.73
2022-09-12T18:40:14.884Z,8.60
2022-09-12T18:42:42.233Z,9.43
2022-09-12T18:45:10.285Z,10.15
2022-09-12T18:47:38.581Z,8.40
2022-09-12T18:50:06.982Z,11.02
2022-09-12T18:52:36.652Z,13.88
2022-09-12T18:55:04.231Z,8.07
2022-09-12T18:57:35.122Z,11.70
2022-09-12T19:00:07.251Z,9.30
2022-09-12T19:02:36.667Z,9.52
2022-09-12T19:05:05.972Z,9.25
2022-09-12T19:07:33.272Z,12.45
2022-09-12T19:10:01.955Z,10.13
2022-09-12T19:12:30.781Z,8.43
2022-09-12T19:14:58.229Z,8.45
2022-09-12T19:17:26.395Z,8.40
2022-09-12T19:19:53.819Z,9.32
2022-09-12T19:22:21.462Z,7.70
2022-09-12T19:24:48.740Z,11.63
2022-09-12T19:27:17.517Z,11.38
2022-09-12T19:29:44.832Z,9.97
2022-09-12T19:32:12.374Z,18.73
2022-09-12T19:34:39.950Z,9.30
2022-09-12T19:37:07.480Z,11.68
2022-09-12T19:39:34.784Z,11.20
2022-09-12T19:42:02.122Z,11.85
2022-09-12T19:44:31.880Z,12.10
2022-09-12T19:49:26.839Z,12.77
2022-09-12T19:51:54.480Z,11.20
2022-09-12T19:54:22.709Z,11.55
2022-09-12T19:56:50.561Z,11.38
2022-09-12T19:59:18.671Z,9.88
2022-09-12T20:01:47.307Z,8.48
2022-09-12T20:04:14.716Z,8.00
2022-09-12T20:06:42.408Z,8.80
2022-09-12T20:09:09.771Z,9.82
2022-09-12T20:11:37.288Z,9.77
2022-09-12T20:14:05.020Z,7.70
2022-09-12T20:16:33.713Z,14.95
2022-09-12T20:19:08.668Z,11.70
2022-09-12T20:21:36.522Z,10.73
2022-09-12T20:24:05.794Z,12.07
2022-09-12T20:26:33.198Z,11.95
2022-09-12T20:29:00.955Z,10.95
2022-09-12T20:31:28.634Z,10.63
2022-09-12T20:33:55.921Z,17.92
2022-09-12T20:36:24.682Z,10.90
2022-09-12T20:38:54.293Z,14.13
2022-09-12T20:41:21.755Z,10.10
2022-09-12T20:43:51.310Z,9.15
2022-09-12T20:46:21.878Z,9.73
2022-09-12T20:48:50.538Z,9.57
2022-09-12T20:51:19.043Z,9.88
2022-09-12T20:53:48.608Z,9.88
2022-09-12T20:58:44.659Z,9.68
2022-09-12T21:01:15.903Z,7.72
2022-09-12T21:03:46.626Z,10.40
2022-09-12T21:06:18.756Z,9.38
2022-09-12T21:08:51.944Z,10.32
2022-09-12T21:11:21.076Z,9.77
2022-09-12T21:13:48.862Z,10.53
2022-09-12T21:16:18.399Z,8.15
2022-09-12T21:18:46.566Z,7.97
2022-09-12T21:21:21.066Z,10.15
2022-09-12T21:23:54.179Z,6.60
2022-09-12T21:26:22.919Z,7.57
2022-09-12T21:28:50.251Z,9.57
2022-09-12T21:31:17.933Z,10.05
2022-09-12T21:33:46.571Z,10.48
2022-09-12T21:36:13.983Z,9.52
2022-09-12T21:38:41.436Z,13.60
2022-09-12T21:41:11.885Z,7.75
2022-09-12T21:43:40.758Z,8.50
2022-09-12T21:46:09.020Z,9.82
2022-09-12T21:48:37.554Z,7.65
2022-09-12T21:51:05.275Z,10.07
2022-09-12T21:53:32.524Z,7.93
2022-09-12T21:56:04.043Z,8.35
2022-09-12T21:58:33.074Z,9.50
2022-09-12T22:01:01.282Z,8.75
2022-09-12T22:03:29.077Z,9.70
2022-09-12T22:06:01.635Z,7.32
2022-09-12T22:08:30.528Z,7.25
2022-09-12T22:10:59.619Z,8.90
2022-09-12T22:13:27.167Z,7.80
2022-09-12T22:15:56.287Z,6.68
2022-09-12T22:18:23.701Z,7.40
2022-09-12T22:20:59.035Z,6.45
2022-09-12T22:23:46.098Z,6.75
2022-09-12T22:26:14.382Z,8.60
2022-09-12T22:28:41.821Z,7.20
2022-09-12T22:31:13.014Z,5.15
2022-09-12T22:33:40.693Z,8.88
2022-09-12T22:36:09.913Z,7.30
2022-09-12T22:38:37.849Z,5.35
2022-09-12T22:41:06.313Z,7.97
2022-09-12T22:43:35.999Z,8.05
2022-09-12T22:46:07.231Z,7.40
2022-09-12T22:48:38.508Z,8.82
2022-09-12T22:51:07.485Z,7.32
2022-09-12T22:53:37.004Z,8.63
2022-09-12T22:58:34.121Z,7.93
2022-09-12T23:01:03.308Z,7.90
2022-09-12T23:03:30.808Z,6.10
2022-09-12T23:06:00.143Z,8.18
2022-09-12T23:08:29.800Z,8.10
2022-09-12T23:13:29.733Z,9.77
2022-09-12T23:16:01.081Z,7.40
2022-09-12T23:18:29.381Z,14.38
2022-09-12T23:21:02.914Z,7.60
2022-09-12T23:23:30.834Z,9.27
2022-09-12T23:26:05.392Z,8.73
2022-09-12T23:28:34.925Z,7.50
2022-09-12T23:31:03.059Z,7.78
2022-09-12T23:33:31.389Z,9.20
2022-09-12T23:36:00.297Z,22.00
2022-09-12T23:38:29.929Z,9.03
2022-09-12T23:40:57.348Z,7.35
2022-09-12T23:43:25.262Z,6.95
2022-09-12T23:45:52.746Z,9.82
2022-09-12T23:48:21.577Z,7.55
2022-09-12T23:50:50.185Z,9.05
2022-09-12T23:53:19.246Z,8.00
2022-09-12T23:55:47.994Z,7.88
2022-09-12T23:58:15.319Z,6.95
